Yasemin — 9HA2114 — position and weather

sailwx.info

Track history (hours):
 
Tides and Currents Weather Stations Pressure Air Temp Water Temp Dewpoint Dewpoint Depression Visibility Wind Speed Wind Dir Waves Ship Positions

Yasemin

Last reported at 2016-Aug-27 03:33 UTC. Time now 2016-Aug-31 07:52 UTC.
Position N 36°15' E 014°35'.

Length 105 m; draft 7.6 m.

Type: Cargo ship. MMSI: 249988000.

Date/timePositionNaut miles runAvg speedWind from/ knotsBaromVisibWave heightAir tempDewpointWater temp
2016-Aug-27 03:33N 36°15' E 014°35'1111.0
2016-Aug-27 02:33N 36°19' E 014°22'1111.2
2016-Aug-27 01:33N 36°22' E 014°09'1111.3
2016-Aug-27 00:33N 36°25' E 013°55'1111.4
2016-Aug-26 23:33N 36°29' E 013°42'2311.5
2016-Aug-26 21:33N 36°36' E 013°15'4811.4
2016-Aug-26 17:23N 36°53' E 012°19'1012.0
2016-Aug-26 16:33N 36°56' E 012°08'1312.4
2016-Aug-26 15:32N 37°03' E 011°54'1212.1
2016-Aug-26 14:33N 37°09' E 011°41'1211.8
2016-Aug-26 13:33N 37°14' E 011°28'1411.3
2016-Aug-26 12:20N 37°21' E 011°13'911.2
2016-Aug-26 11:32N 37°24' E 011°02'1111.3
2016-Aug-26 10:33N 37°27' E 010°49'1111.2
2016-Aug-26 09:33N 37°30' E 010°35'3611.4
2016-Aug-26 06:24N 37°34' E 009°50'3411.7
2016-Aug-26 03:28N 37°37' E 009°07'24710.7
2016-Aug-25 04:27N 37°15' E 003°57'12910.8
2016-Aug-24 16:31N 36°51' E 001°19'1010.7
2016-Aug-24 15:33N 36°49' E 001°06'9310.2
2016-Aug-24 06:27N 36°29' W 000°47'21610.8
2016-Aug-23 10:28N 35°57' W 005°13'6 6.1
2016-Aug-23 09:33N 35°54' W 005°18'0 0.0
2016-Aug-23 08:33N 35°54' W 005°18'0 0.0
2016-Aug-23 07:33N 35°54' W 005°18'0 0.0
2016-Aug-23 06:33N 35°54' W 005°18'0 0.0
2016-Aug-23 05:33N 35°54' W 005°18'0 0.0
2016-Aug-23 04:33N 35°54' W 005°18'0 0.0
2016-Aug-23 03:33N 35°54' W 005°18'0 0.0
2016-Aug-23 02:33N 35°54' W 005°18'3 3.3
2016-Aug-23 01:34N 35°56' W 005°20'8 7.6
2016-Aug-23 00:33N 35°57' W 005°30'1010.2
2016-Aug-22 23:34N 35°55' W 005°42'12 9.1
2016-Aug-22 22:17N 35°54' W 005°57'151 9.0
2016-Aug-22 05:28N 36°30' W 008°59'1011.3
2016-Aug-22 04:33N 36°32' W 009°12'1110.6
2016-Aug-22 03:33N 36°39' W 009°22'1111.0
2016-Aug-22 02:34N 36°46' W 009°32'1111.2
2016-Aug-22 01:34N 36°57' W 009°36'1111.4
2016-Aug-22 00:33N 37°08' W 009°39'1211.6
2016-Aug-21 23:33N 37°20' W 009°42'1212.0
2016-Aug-21 22:33N 37°31' W 009°45'1211.9
2016-Aug-21 21:33N 37°43' W 009°49'1212.0
2016-Aug-21 20:34N 37°54' W 009°52'1211.9
2016-Aug-21 19:34N 38°06' W 009°55'1211.8
2016-Aug-21 18:33N 38°18' W 009°59'1212.1
2016-Aug-21 17:34N 38°29' W 010°02'1212.0
2016-Aug-21 16:33N 38°41' W 010°05'1211.6
2016-Aug-21 15:33N 38°53' W 010°06'1111.5
2016-Aug-21 14:33N 39°04' W 010°06'  
2016-Aug-18 19:32N 48°46' W 005°54'1111.3
2016-Aug-18 18:33N 48°55' W 005°43'1410.2
2016-Aug-18 17:10N 49°02' W 005°25'6 9.6
2016-Aug-18 16:33N 49°05' W 005°17'9 9.0
2016-Aug-18 15:33N 49°10' W 005°05'6611.0
2016-Aug-18 09:33N 49°43' W 003°38'1110.9
2016-Aug-18 08:34N 49°49' W 003°24'10 9.5
2016-Aug-18 07:34N 49°54' W 003°11'9 9.3
2016-Aug-18 06:33N 49°58' W 002°59'1110.0
2016-Aug-18 05:27N 50°02' W 002°42'7211.9
2016-Aug-17 23:25N 49°44' W 000°53'1012.1
2016-Aug-17 22:33N 49°40' W 000°39'1111.0
2016-Aug-17 21:33N 49°36' W 000°23'1110.9
2016-Aug-17 20:34N 49°30' W 000°09'1110.5
2016-Aug-17 19:34N 49°26' E 000°06'9 8.7
2016-Aug-17 18:33N 49°26' E 000°19'9 8.7
2016-Aug-17 17:33N 49°28' E 000°33'8 8.3
2016-Aug-17 16:32N 49°31' E 000°44'  
Track history (hours):
 
Tides and Currents Weather Stations Pressure Air Temp Water Temp Dewpoint Dewpoint Depression Visibility Wind Speed Wind Dir Waves Ship Positions

Yasemin

Last reported at 2016-Aug-27 03:33 UTC. Time now 2016-Aug-31 07:52 UTC.
Position N 36°15' E 014°35'.

Length 105 m; draft 7.6 m.

Type: Cargo ship. MMSI: 249988000.

Date/timePositionNaut miles runAvg speedWind from/ knotsBaromVisibWave heightAir tempDewpointWater temp
2016-Aug-27 03:33N 36°15' E 014°35'1111.0
2016-Aug-27 02:33N 36°19' E 014°22'1111.2
2016-Aug-27 01:33N 36°22' E 014°09'1111.3
2016-Aug-27 00:33N 36°25' E 013°55'1111.4
2016-Aug-26 23:33N 36°29' E 013°42'2311.5
2016-Aug-26 21:33N 36°36' E 013°15'4811.4
2016-Aug-26 17:23N 36°53' E 012°19'1012.0
2016-Aug-26 16:33N 36°56' E 012°08'1312.4
2016-Aug-26 15:32N 37°03' E 011°54'1212.1
2016-Aug-26 14:33N 37°09' E 011°41'1211.8
2016-Aug-26 13:33N 37°14' E 011°28'1411.3
2016-Aug-26 12:20N 37°21' E 011°13'911.2
2016-Aug-26 11:32N 37°24' E 011°02'1111.3
2016-Aug-26 10:33N 37°27' E 010°49'1111.2
2016-Aug-26 09:33N 37°30' E 010°35'3611.4
2016-Aug-26 06:24N 37°34' E 009°50'3411.7
2016-Aug-26 03:28N 37°37' E 009°07'24710.7
2016-Aug-25 04:27N 37°15' E 003°57'12910.8
2016-Aug-24 16:31N 36°51' E 001°19'1010.7
2016-Aug-24 15:33N 36°49' E 001°06'9310.2
2016-Aug-24 06:27N 36°29' W 000°47'21610.8
2016-Aug-23 10:28N 35°57' W 005°13'6 6.1
2016-Aug-23 09:33N 35°54' W 005°18'0 0.0
2016-Aug-23 08:33N 35°54' W 005°18'0 0.0
2016-Aug-23 07:33N 35°54' W 005°18'0 0.0
2016-Aug-23 06:33N 35°54' W 005°18'0 0.0
2016-Aug-23 05:33N 35°54' W 005°18'0 0.0
2016-Aug-23 04:33N 35°54' W 005°18'0 0.0
2016-Aug-23 03:33N 35°54' W 005°18'0 0.0
2016-Aug-23 02:33N 35°54' W 005°18'3 3.3
2016-Aug-23 01:34N 35°56' W 005°20'8 7.6
2016-Aug-23 00:33N 35°57' W 005°30'1010.2
2016-Aug-22 23:34N 35°55' W 005°42'12 9.1
2016-Aug-22 22:17N 35°54' W 005°57'151 9.0
2016-Aug-22 05:28N 36°30' W 008°59'1011.3
2016-Aug-22 04:33N 36°32' W 009°12'1110.6
2016-Aug-22 03:33N 36°39' W 009°22'1111.0
2016-Aug-22 02:34N 36°46' W 009°32'1111.2
2016-Aug-22 01:34N 36°57' W 009°36'1111.4
2016-Aug-22 00:33N 37°08' W 009°39'1211.6
2016-Aug-21 23:33N 37°20' W 009°42'1212.0
2016-Aug-21 22:33N 37°31' W 009°45'1211.9
2016-Aug-21 21:33N 37°43' W 009°49'1212.0
2016-Aug-21 20:34N 37°54' W 009°52'1211.9
2016-Aug-21 19:34N 38°06' W 009°55'1211.8
2016-Aug-21 18:33N 38°18' W 009°59'1212.1
2016-Aug-21 17:34N 38°29' W 010°02'1212.0
2016-Aug-21 16:33N 38°41' W 010°05'1211.6
2016-Aug-21 15:33N 38°53' W 010°06'1111.5
2016-Aug-21 14:33N 39°04' W 010°06'  
2016-Aug-18 19:32N 48°46' W 005°54'1111.3
2016-Aug-18 18:33N 48°55' W 005°43'1410.2
2016-Aug-18 17:10N 49°02' W 005°25'6 9.6
2016-Aug-18 16:33N 49°05' W 005°17'9 9.0
2016-Aug-18 15:33N 49°10' W 005°05'6611.0
2016-Aug-18 09:33N 49°43' W 003°38'1110.9
2016-Aug-18 08:34N 49°49' W 003°24'10 9.5
2016-Aug-18 07:34N 49°54' W 003°11'9 9.3
2016-Aug-18 06:33N 49°58' W 002°59'1110.0
2016-Aug-18 05:27N 50°02' W 002°42'7211.9
2016-Aug-17 23:25N 49°44' W 000°53'1012.1
2016-Aug-17 22:33N 49°40' W 000°39'1111.0
2016-Aug-17 21:33N 49°36' W 000°23'1110.9
2016-Aug-17 20:34N 49°30' W 000°09'1110.5
2016-Aug-17 19:34N 49°26' E 000°06'9 8.7
2016-Aug-17 18:33N 49°26' E 000°19'9 8.7
2016-Aug-17 17:33N 49°28' E 000°33'8 8.3
2016-Aug-17 16:32N 49°31' E 000°44'  

Dump ship's entire track history